Portada
METAR-TAF:

METAR-TAF

Aeroports :

Angeles, Filipines

latitud: 15-11N, longitud: 120-33E, altitud: 148 m

Observació

L'informe es va fer fa 34 minuts, a les 16:00 UTC
Vent 2 kt del Oest
Temperatura 22°C
Humitat 78%
Pressió 1019 hPa
Visibilitat: 8000 m
Escasses núvols a una alçada de 2000 ft
Cel ennuvolat a una alçada de 30000 ft

METAR: RPLC 211600Z 27002KT 8000 FEW020 BKN300 22/18 Q1019 NOSIG RMK A3009

Hora: 00:34 (16:34 UTC)

Pronòstic

L'informe es va fer fa 5 hores i 34 minuts, a les 11:00 UTC
Pronòstic vàlid del 21 a les 12 UTC al 22 a les 18 UTC
Vent 6 kt del Nord-Est
Visibilitat 10 km o més
Escasses núvols a una alçada de 2000 ft
Cel ennuvolat a una alçada de 30000 ft
Temporalment
l' 21 a les 12 UTC al 21 a les 18 UTC
Vent 8 kt del Est
Núvols disperses a una alçada de 2000 ft
Cel ennuvolat a una alçada de 10000 ft

TAF: RPLC 211100Z 2112/2218 04006KT 9999 FEW020 BKN300 TX30/2206Z TN23/2122Z TEMPO 2112/2118 09008KT SCT020 BKN100

Observacions i pronòstics meteorològics de més de 4000 aeroports (METAR i TAF).

Les estacions disponibles són els punts grocs i vermells al mapa.

Posi el ratolí al punt desitjat per veure el nom de l'estació.

Feu clic per veure les observacions i els pronòstics meteorològics.

Per canviar el mapa: feu clic els botons verds amb una creu de color negre per apropar; al botó verd amb un guió per allunyar la imatge; o en les fletxes verdes per a mapes adjacents.


METAR-TAF: